Main page
METAR-TAF:

METAR-TAF

Airports :

El Salvador, El Salvador

Monseñor Óscar Arnulfo Romero International Airport

latitude: 13-26N, longitude: 089-03W, elevation: 25 m

Current weather observation

The report was made 1 hour and 11 minutes ago, at 09:50 UTC
Wind 11 kt from the Northeast
Temperature 27°C
Humidity 62%
Pressure 1010 hPa
Visibility 10 km or more
no clouds below 1500 m and no cumulonimbus

METAR: MSLP 180950Z 04011KT CAVOK 27/19 Q1009 A2982 NOSIG

Time: 05:01 (11:01 UTC)

Forecast

The report was made 7 hours and 36 minutes ago, at 03:25 UTC
Forecast valid from 18 at 06 UTC to 19 at 06 UTC
Wind 4 kt from the East/Northeast
Visibility 10 km or more
no clouds below 1500 m and no cumulonimbus
From 18 at 1300 UTC
Wind 12 kt from the North
From 18 at 1800 UTC
Wind 8 kt from the South/Southwest
Visibility 10 km or more
Scattered clouds at a height of 6000 ft

TAF: MSLP 180325Z 1806/1906 06004KT CAVOK TX35/1818Z TN22/1810Z FM181300 01012KT FM181800 20008KT 9999 SCT060

Weather observations and forecasts of more than 4000 airports (METAR and TAF reports).

The available stations are represented by yellow and red dots on the map.

Hover mouse over dot to see the name of the station.

Then click to see weather observations and forecasts.

To change the map : click on the green buttons with a black cross to zoom in, on the green button with a dash to zoom out, or on the green arrows for adjacent maps.


METAR-TAF: